sensor_id;sensor_type;location;lat;lon;timestamp;temperature;humidity
39957;DHT22;48483;44.640;7.494;2022-09-16T00:00:58;21.10;99.90
39957;DHT22;48483;44.640;7.494;2022-09-16T00:03:25;21.10;99.90
39957;DHT22;48483;44.640;7.494;2022-09-16T00:05:52;21.10;99.90
39957;DHT22;48483;44.640;7.494;2022-09-16T00:08:21;21.10;99.90
39957;DHT22;48483;44.640;7.494;2022-09-16T00:10:48;21.00;99.90
39957;DHT22;48483;44.640;7.494;2022-09-16T00:13:16;21.00;99.80
39957;DHT22;48483;44.640;7.494;2022-09-16T00:15:44;21.00;99.90
39957;DHT22;48483;44.640;7.494;2022-09-16T00:18:11;21.00;99.90
39957;DHT22;48483;44.640;7.494;2022-09-16T00:20:42;21.00;99.90
39957;DHT22;48483;44.640;7.494;2022-09-16T00:23:09;21.00;99.90
39957;DHT22;48483;44.640;7.494;2022-09-16T00:25:37;21.10;99.90
39957;DHT22;48483;44.640;7.494;2022-09-16T00:28:04;21.10;99.80
39957;DHT22;48483;44.640;7.494;2022-09-16T00:30:31;21.10;99.90
39957;DHT22;48483;44.640;7.494;2022-09-16T00:32:57;21.00;99.90
39957;DHT22;48483;44.640;7.494;2022-09-16T00:35:24;21.10;99.90
39957;DHT22;48483;44.640;7.494;2022-09-16T00:37:51;21.00;99.90
39957;DHT22;48483;44.640;7.494;2022-09-16T00:40:17;21.00;99.90
39957;DHT22;48483;44.640;7.494;2022-09-16T00:42:45;20.90;99.90
39957;DHT22;48483;44.640;7.494;2022-09-16T00:45:15;20.90;99.90
39957;DHT22;48483;44.640;7.494;2022-09-16T00:47:46;20.90;99.90
39957;DHT22;48483;44.640;7.494;2022-09-16T00:50:18;20.90;99.90
39957;DHT22;48483;44.640;7.494;2022-09-16T00:52:46;20.90;99.90
39957;DHT22;48483;44.640;7.494;2022-09-16T00:55:16;20.90;99.90
39957;DHT22;48483;44.640;7.494;2022-09-16T00:57:46;20.90;99.90
39957;DHT22;48483;44.640;7.494;2022-09-16T01:00:14;20.90;99.90
39957;DHT22;48483;44.640;7.494;2022-09-16T01:02:41;20.80;99.90
39957;DHT22;48483;44.640;7.494;2022-09-16T01:05:12;20.80;99.90
39957;DHT22;48483;44.640;7.494;2022-09-16T01:07:43;20.70;99.90
39957;DHT22;48483;44.640;7.494;2022-09-16T01:10:10;20.60;99.90
39957;DHT22;48483;44.640;7.494;2022-09-16T01:12:38;20.60;99.90
39957;DHT22;48483;44.640;7.494;2022-09-16T01:15:09;20.50;99.90
39957;DHT22;48483;44.640;7.494;2022-09-16T01:17:49;20.50;99.90
39957;DHT22;48483;44.640;7.494;2022-09-16T01:20:34;20.40;99.90
39957;DHT22;48483;44.640;7.494;2022-09-16T01:23:31;20.40;99.90
39957;DHT22;48483;44.640;7.494;2022-09-16T01:26:17;20.30;99.90
39957;DHT22;48483;44.640;7.494;2022-09-16T01:29:18;20.30;99.90
39957;DHT22;48483;44.640;7.494;2022-09-16T01:31:49;20.30;99.90
39957;DHT22;48483;44.640;7.494;2022-09-16T01:34:26;20.30;99.90
39957;DHT22;48483;44.640;7.494;2022-09-16T01:37:01;20.30;99.90
39957;DHT22;48483;44.640;7.494;2022-09-16T01:39:33;20.30;99.90
39957;DHT22;48483;44.640;7.494;2022-09-16T01:42:14;20.30;99.90
39957;DHT22;48483;44.640;7.494;2022-09-16T01:44:47;20.20;99.90
39957;DHT22;48483;44.640;7.494;2022-09-16T01:47:21;20.20;99.90
39957;DHT22;48483;44.640;7.494;2022-09-16T01:49:59;20.20;99.90
39957;DHT22;48483;44.640;7.494;2022-09-16T01:52:36;20.20;99.90
39957;DHT22;48483;44.640;7.494;2022-09-16T01:55:07;20.20;99.90
39957;DHT22;48483;44.640;7.494;2022-09-16T01:57:35;20.20;99.90
39957;DHT22;48483;44.640;7.494;2022-09-16T02:00:06;20.20;99.90
39957;DHT22;48483;44.640;7.494;2022-09-16T02:02:38;20.20;99.90
39957;DHT22;48483;44.640;7.494;2022-09-16T02:05:10;20.20;99.90
39957;DHT22;48483;44.640;7.494;2022-09-16T02:07:41;20.20;99.90
39957;DHT22;48483;44.640;7.494;2022-09-16T02:10:14;20.20;99.90
39957;DHT22;48483;44.640;7.494;2022-09-16T02:12:44;20.20;99.90
39957;DHT22;48483;44.640;7.494;2022-09-16T02:15:16;20.10;99.90
39957;DHT22;48483;44.640;7.494;2022-09-16T02:17:53;20.10;99.90
39957;DHT22;48483;44.640;7.494;2022-09-16T02:20:25;20.00;99.90
39957;DHT22;48483;44.640;7.494;2022-09-16T02:22:57;20.00;99.90
39957;DHT22;48483;44.640;7.494;2022-09-16T02:25:25;19.90;99.90
39957;DHT22;48483;44.640;7.494;2022-09-16T02:27:53;19.80;99.90
39957;DHT22;48483;44.640;7.494;2022-09-16T02:30:21;19.80;99.90
39957;DHT22;48483;44.640;7.494;2022-09-16T02:32:53;19.80;99.90
39957;DHT22;48483;44.640;7.494;2022-09-16T02:35:22;19.80;99.90
39957;DHT22;48483;44.640;7.494;2022-09-16T02:37:52;19.80;99.90
39957;DHT22;48483;44.640;7.494;2022-09-16T02:40:24;19.70;99.90
39957;DHT22;48483;44.640;7.494;2022-09-16T02:42:51;19.80;99.90
39957;DHT22;48483;44.640;7.494;2022-09-16T02:45:20;19.80;99.90
39957;DHT22;48483;44.640;7.494;2022-09-16T02:47:51;19.80;99.90
39957;DHT22;48483;44.640;7.494;2022-09-16T02:50:21;19.80;99.90
39957;DHT22;48483;44.640;7.494;2022-09-16T02:52:55;19.70;99.90
39957;DHT22;48483;44.640;7.494;2022-09-16T02:55:30;19.70;99.90
39957;DHT22;48483;44.640;7.494;2022-09-16T02:57:59;19.70;99.90
39957;DHT22;48483;44.640;7.494;2022-09-16T03:00:27;19.70;99.90
39957;DHT22;48483;44.640;7.494;2022-09-16T03:02:56;19.80;99.90
39957;DHT22;48483;44.640;7.494;2022-09-16T03:05:26;19.80;99.90
39957;DHT22;48483;44.640;7.494;2022-09-16T03:07:53;19.80;99.90
39957;DHT22;48483;44.640;7.494;2022-09-16T03:10:21;19.90;99.90
39957;DHT22;48483;44.640;7.494;2022-09-16T03:12:57;19.90;99.90
39957;DHT22;48483;44.640;7.494;2022-09-16T03:15:47;19.80;99.90
39957;DHT22;48483;44.640;7.494;2022-09-16T03:18:37;19.80;99.90
39957;DHT22;48483;44.640;7.494;2022-09-16T03:21:15;19.70;99.90
39957;DHT22;48483;44.640;7.494;2022-09-16T03:23:48;19.70;99.90
39957;DHT22;48483;44.640;7.494;2022-09-16T03:26:24;19.60;99.90
39957;DHT22;48483;44.640;7.494;2022-09-16T03:29:02;19.60;99.90
39957;DHT22;48483;44.640;7.494;2022-09-16T03:31:34;19.60;99.90
39957;DHT22;48483;44.640;7.494;2022-09-16T03:34:07;19.60;99.90
39957;DHT22;48483;44.640;7.494;2022-09-16T03:36:41;19.50;99.90
39957;DHT22;48483;44.640;7.494;2022-09-16T03:39:10;19.60;99.90
39957;DHT22;48483;44.640;7.494;2022-09-16T03:41:37;19.60;99.90
39957;DHT22;48483;44.640;7.494;2022-09-16T03:44:04;19.60;99.90
39957;DHT22;48483;44.640;7.494;2022-09-16T03:46:31;19.60;99.90
39957;DHT22;48483;44.640;7.494;2022-09-16T03:48:58;19.60;99.90
39957;DHT22;48483;44.640;7.494;2022-09-16T03:51:26;19.60;99.90
39957;DHT22;48483;44.640;7.494;2022-09-16T03:53:53;19.60;99.90
39957;DHT22;48483;44.640;7.494;2022-09-16T03:56:21;19.60;99.90
39957;DHT22;48483;44.640;7.494;2022-09-16T03:58:48;19.60;99.90
39957;DHT22;48483;44.640;7.494;2022-09-16T04:01:15;19.70;99.90
39957;DHT22;48483;44.640;7.494;2022-09-16T04:03:41;19.70;99.90
39957;DHT22;48483;44.640;7.494;2022-09-16T04:06:08;19.70;99.90
39957;DHT22;48483;44.640;7.494;2022-09-16T04:08:36;19.70;99.90
39957;DHT22;48483;44.640;7.494;2022-09-16T04:11:05;19.70;99.90
39957;DHT22;48483;44.640;7.494;2022-09-16T04:13:33;19.70;99.90
39957;DHT22;48483;44.640;7.494;2022-09-16T04:16:01;19.70;99.90
39957;DHT22;48483;44.640;7.494;2022-09-16T04:18:29;19.70;99.90
39957;DHT22;48483;44.640;7.494;2022-09-16T04:20:56;19.70;99.90
39957;DHT22;48483;44.640;7.494;2022-09-16T04:23:24;19.70;99.90
39957;DHT22;48483;44.640;7.494;2022-09-16T04:25:56;19.70;99.90
39957;DHT22;48483;44.640;7.494;2022-09-16T04:28:23;19.60;99.90
39957;DHT22;48483;44.640;7.494;2022-09-16T04:30:50;19.70;99.90
39957;DHT22;48483;44.640;7.494;2022-09-16T04:33:18;19.70;99.90
39957;DHT22;48483;44.640;7.494;2022-09-16T04:35:45;19.70;99.90
39957;DHT22;48483;44.640;7.494;2022-09-16T04:38:11;19.70;99.90
39957;DHT22;48483;44.640;7.494;2022-09-16T04:40:38;19.60;99.90
39957;DHT22;48483;44.640;7.494;2022-09-16T04:43:06;19.60;99.90
39957;DHT22;48483;44.640;7.494;2022-09-16T04:45:33;19.50;99.90
39957;DHT22;48483;44.640;7.494;2022-09-16T04:48:00;19.50;99.90
39957;DHT22;48483;44.640;7.494;2022-09-16T04:50:26;19.50;99.90
39957;DHT22;48483;44.640;7.494;2022-09-16T04:52:53;19.50;99.90
39957;DHT22;48483;44.640;7.494;2022-09-16T04:55:20;19.50;99.90
39957;DHT22;48483;44.640;7.494;2022-09-16T04:57:49;19.50;99.90
39957;DHT22;48483;44.640;7.494;2022-09-16T05:00:17;19.50;99.90
39957;DHT22;48483;44.640;7.494;2022-09-16T05:02:44;19.50;99.90
39957;DHT22;48483;44.640;7.494;2022-09-16T05:05:11;19.50;99.90
39957;DHT22;48483;44.640;7.494;2022-09-16T05:07:38;19.40;99.90
39957;DHT22;48483;44.640;7.494;2022-09-16T05:10:05;19.40;99.90
39957;DHT22;48483;44.640;7.494;2022-09-16T05:12:32;19.40;99.90
39957;DHT22;48483;44.640;7.494;2022-09-16T05:14:58;19.40;99.90
39957;DHT22;48483;44.640;7.494;2022-09-16T05:17:28;19.40;99.90
39957;DHT22;48483;44.640;7.494;2022-09-16T05:19:55;19.40;99.90
39957;DHT22;48483;44.640;7.494;2022-09-16T05:22:21;19.40;99.90
39957;DHT22;48483;44.640;7.494;2022-09-16T05:24:48;19.40;99.90
39957;DHT22;48483;44.640;7.494;2022-09-16T05:27:15;19.30;99.90
39957;DHT22;48483;44.640;7.494;2022-09-16T05:29:42;19.30;99.90
39957;DHT22;48483;44.640;7.494;2022-09-16T05:32:09;19.30;99.90
39957;DHT22;48483;44.640;7.494;2022-09-16T05:34:37;19.20;99.90
39957;DHT22;48483;44.640;7.494;2022-09-16T05:37:03;19.20;99.90
39957;DHT22;48483;44.640;7.494;2022-09-16T05:39:30;19.20;99.90
39957;DHT22;48483;44.640;7.494;2022-09-16T05:41:58;19.20;99.90
39957;DHT22;48483;44.640;7.494;2022-09-16T05:44:26;19.20;99.90
39957;DHT22;48483;44.640;7.494;2022-09-16T05:46:53;19.30;99.90
39957;DHT22;48483;44.640;7.494;2022-09-16T05:49:20;19.30;99.90
39957;DHT22;48483;44.640;7.494;2022-09-16T05:51:49;19.40;99.90
39957;DHT22;48483;44.640;7.494;2022-09-16T05:54:16;19.40;99.90
39957;DHT22;48483;44.640;7.494;2022-09-16T05:56:46;19.40;99.90
39957;DHT22;48483;44.640;7.494;2022-09-16T05:59:13;19.40;99.90
39957;DHT22;48483;44.640;7.494;2022-09-16T06:01:40;19.50;99.90
39957;DHT22;48483;44.640;7.494;2022-09-16T06:04:12;19.40;99.90
39957;DHT22;48483;44.640;7.494;2022-09-16T06:06:40;19.50;99.90
39957;DHT22;48483;44.640;7.494;2022-09-16T06:09:11;19.50;99.90
39957;DHT22;48483;44.640;7.494;2022-09-16T06:11:40;19.50;99.90
39957;DHT22;48483;44.640;7.494;2022-09-16T06:14:08;19.50;99.90
39957;DHT22;48483;44.640;7.494;2022-09-16T06:16:35;19.60;99.90
39957;DHT22;48483;44.640;7.494;2022-09-16T06:19:04;19.60;99.90
39957;DHT22;48483;44.640;7.494;2022-09-16T06:21:32;19.60;99.90
39957;DHT22;48483;44.640;7.494;2022-09-16T06:23:58;19.70;99.90
39957;DHT22;48483;44.640;7.494;2022-09-16T06:26:26;19.70;99.90
39957;DHT22;48483;44.640;7.494;2022-09-16T06:28:54;19.80;99.90
39957;DHT22;48483;44.640;7.494;2022-09-16T06:31:22;19.80;99.90
39957;DHT22;48483;44.640;7.494;2022-09-16T06:33:50;19.90;99.90
39957;DHT22;48483;44.640;7.494;2022-09-16T06:36:18;19.90;99.90
39957;DHT22;48483;44.640;7.494;2022-09-16T06:38:45;20.00;99.90
39957;DHT22;48483;44.640;7.494;2022-09-16T06:41:13;20.10;99.90
39957;DHT22;48483;44.640;7.494;2022-09-16T06:43:42;20.30;99.90
39957;DHT22;48483;44.640;7.494;2022-09-16T06:46:11;20.30;99.90
39957;DHT22;48483;44.640;7.494;2022-09-16T06:48:46;20.50;99.90
39957;DHT22;48483;44.640;7.494;2022-09-16T06:51:15;20.50;99.90
39957;DHT22;48483;44.640;7.494;2022-09-16T06:53:43;20.70;99.90
39957;DHT22;48483;44.640;7.494;2022-09-16T06:56:11;20.90;99.90
39957;DHT22;48483;44.640;7.494;2022-09-16T06:58:41;21.00;99.90
39957;DHT22;48483;44.640;7.494;2022-09-16T07:01:10;21.10;99.90
39957;DHT22;48483;44.640;7.494;2022-09-16T07:03:37;21.20;99.90
39957;DHT22;48483;44.640;7.494;2022-09-16T07:06:05;21.40;99.90
39957;DHT22;48483;44.640;7.494;2022-09-16T07:08:33;21.50;99.90
39957;DHT22;48483;44.640;7.494;2022-09-16T07:11:01;21.60;99.90
39957;DHT22;48483;44.640;7.494;2022-09-16T07:13:29;21.80;99.90
39957;DHT22;48483;44.640;7.494;2022-09-16T07:15:59;21.90;99.90
39957;DHT22;48483;44.640;7.494;2022-09-16T07:18:27;22.00;99.90
39957;DHT22;48483;44.640;7.494;2022-09-16T07:21:00;22.10;99.60
39957;DHT22;48483;44.640;7.494;2022-09-16T07:23:28;22.20;99.40
39957;DHT22;48483;44.640;7.494;2022-09-16T07:26:00;22.40;98.10
39957;DHT22;48483;44.640;7.494;2022-09-16T07:28:27;22.50;97.40
39957;DHT22;48483;44.640;7.494;2022-09-16T07:30:53;22.60;96.00
39957;DHT22;48483;44.640;7.494;2022-09-16T07:33:22;22.70;95.90
39957;DHT22;48483;44.640;7.494;2022-09-16T07:35:48;22.80;95.70
39957;DHT22;48483;44.640;7.494;2022-09-16T07:38:15;22.90;95.00
39957;DHT22;48483;44.640;7.494;2022-09-16T07:40:42;23.00;94.90
39957;DHT22;48483;44.640;7.494;2022-09-16T07:43:08;23.00;94.40
39957;DHT22;48483;44.640;7.494;2022-09-16T07:45:35;23.20;94.60
39957;DHT22;48483;44.640;7.494;2022-09-16T07:48:02;23.20;94.50
39957;DHT22;48483;44.640;7.494;2022-09-16T07:50:30;23.30;94.30
39957;DHT22;48483;44.640;7.494;2022-09-16T07:52:56;23.40;94.00
39957;DHT22;48483;44.640;7.494;2022-09-16T07:55:23;23.40;93.70
39957;DHT22;48483;44.640;7.494;2022-09-16T07:57:50;23.50;94.20
39957;DHT22;48483;44.640;7.494;2022-09-16T08:00:17;23.60;94.40
39957;DHT22;48483;44.640;7.494;2022-09-16T08:02:43;23.70;94.60
39957;DHT22;48483;44.640;7.494;2022-09-16T08:05:10;23.80;94.60
39957;DHT22;48483;44.640;7.494;2022-09-16T08:07:40;23.90;94.50
39957;DHT22;48483;44.640;7.494;2022-09-16T08:10:07;23.90;94.50
39957;DHT22;48483;44.640;7.494;2022-09-16T08:12:33;24.00;94.00
39957;DHT22;48483;44.640;7.494;2022-09-16T08:15:00;24.00;93.90
39957;DHT22;48483;44.640;7.494;2022-09-16T08:17:27;24.10;93.10
39957;DHT22;48483;44.640;7.494;2022-09-16T08:19:54;24.10;92.60
39957;DHT22;48483;44.640;7.494;2022-09-16T08:22:20;24.20;92.00
39957;DHT22;48483;44.640;7.494;2022-09-16T08:24:50;24.20;92.10
39957;DHT22;48483;44.640;7.494;2022-09-16T08:27:16;24.30;91.90
39957;DHT22;48483;44.640;7.494;2022-09-16T08:29:43;24.40;92.10
39957;DHT22;48483;44.640;7.494;2022-09-16T08:32:10;24.40;92.30
39957;DHT22;48483;44.640;7.494;2022-09-16T08:34:37;24.50;92.30
39957;DHT22;48483;44.640;7.494;2022-09-16T08:37:05;24.70;91.90
39957;DHT22;48483;44.640;7.494;2022-09-16T08:39:32;24.60;91.90
39957;DHT22;48483;44.640;7.494;2022-09-16T08:42:19;24.70;91.30
39957;DHT22;48483;44.640;7.494;2022-09-16T08:44:52;24.80;91.70
39957;DHT22;48483;44.640;7.494;2022-09-16T08:47:33;24.90;90.40
39957;DHT22;48483;44.640;7.494;2022-09-16T08:50:05;24.90;90.50
39957;DHT22;48483;44.640;7.494;2022-09-16T08:52:37;25.00;90.70
39957;DHT22;48483;44.640;7.494;2022-09-16T08:55:08;25.00;91.20
39957;DHT22;48483;44.640;7.494;2022-09-16T08:57:40;25.10;91.40
39957;DHT22;48483;44.640;7.494;2022-09-16T09:00:13;25.10;91.30
39957;DHT22;48483;44.640;7.494;2022-09-16T09:02:45;25.10;90.90
39957;DHT22;48483;44.640;7.494;2022-09-16T09:05:16;25.20;90.20
39957;DHT22;48483;44.640;7.494;2022-09-16T09:08:08;25.20;89.40
39957;DHT22;48483;44.640;7.494;2022-09-16T09:10:41;25.40;89.70
39957;DHT22;48483;44.640;7.494;2022-09-16T09:13:28;25.40;88.80
39957;DHT22;48483;44.640;7.494;2022-09-16T09:16:01;25.50;85.60
39957;DHT22;48483;44.640;7.494;2022-09-16T09:18:36;25.50;86.40
39957;DHT22;48483;44.640;7.494;2022-09-16T09:21:18;25.60;85.40
39957;DHT22;48483;44.640;7.494;2022-09-16T09:24:03;25.60;85.40
39957;DHT22;48483;44.640;7.494;2022-09-16T09:26:40;25.60;83.40
39957;DHT22;48483;44.640;7.494;2022-09-16T09:29:26;25.70;83.70
39957;DHT22;48483;44.640;7.494;2022-09-16T09:32:01;25.70;81.80
39957;DHT22;48483;44.640;7.494;2022-09-16T09:34:46;25.70;81.40
39957;DHT22;48483;44.640;7.494;2022-09-16T09:37:29;25.80;82.80
39957;DHT22;48483;44.640;7.494;2022-09-16T09:40:06;26.00;83.30
39957;DHT22;48483;44.640;7.494;2022-09-16T09:42:38;26.00;80.20
39957;DHT22;48483;44.640;7.494;2022-09-16T09:45:18;26.00;80.70
39957;DHT22;48483;44.640;7.494;2022-09-16T09:47:48;26.10;78.20
39957;DHT22;48483;44.640;7.494;2022-09-16T09:50:19;26.10;74.50
39957;DHT22;48483;44.640;7.494;2022-09-16T09:52:55;26.20;74.90
39957;DHT22;48483;44.640;7.494;2022-09-16T09:55:25;26.20;75.80
39957;DHT22;48483;44.640;7.494;2022-09-16T09:58:04;26.20;74.20
39957;DHT22;48483;44.640;7.494;2022-09-16T10:00:36;26.20;74.00
39957;DHT22;48483;44.640;7.494;2022-09-16T10:03:09;26.30;74.70
39957;DHT22;48483;44.640;7.494;2022-09-16T10:05:37;26.30;75.20
39957;DHT22;48483;44.640;7.494;2022-09-16T10:08:18;26.40;75.40
39957;DHT22;48483;44.640;7.494;2022-09-16T10:10:49;26.40;75.20
39957;DHT22;48483;44.640;7.494;2022-09-16T10:13:18;26.40;75.70
39957;DHT22;48483;44.640;7.494;2022-09-16T10:15:48;26.50;71.70
39957;DHT22;48483;44.640;7.494;2022-09-16T10:18:24;26.50;69.20
39957;DHT22;48483;44.640;7.494;2022-09-16T10:20:58;26.50;65.80
39957;DHT22;48483;44.640;7.494;2022-09-16T10:23:26;26.50;67.30
39957;DHT22;48483;44.640;7.494;2022-09-16T10:26:13;26.60;67.90
39957;DHT22;48483;44.640;7.494;2022-09-16T10:28:52;26.70;68.00
39957;DHT22;48483;44.640;7.494;2022-09-16T10:31:21;26.70;67.00
39957;DHT22;48483;44.640;7.494;2022-09-16T10:33:48;26.70;66.40
39957;DHT22;48483;44.640;7.494;2022-09-16T10:36:18;26.80;66.90
39957;DHT22;48483;44.640;7.494;2022-09-16T10:38:45;26.80;66.20
39957;DHT22;48483;44.640;7.494;2022-09-16T10:41:16;26.80;65.50
39957;DHT22;48483;44.640;7.494;2022-09-16T10:43:47;26.90;65.50
39957;DHT22;48483;44.640;7.494;2022-09-16T10:46:16;26.90;65.00
39957;DHT22;48483;44.640;7.494;2022-09-16T10:48:46;26.90;64.00
39957;DHT22;48483;44.640;7.494;2022-09-16T10:51:21;27.00;62.30
39957;DHT22;48483;44.640;7.494;2022-09-16T10:53:52;27.00;61.60
39957;DHT22;48483;44.640;7.494;2022-09-16T10:56:21;27.00;62.10
39957;DHT22;48483;44.640;7.494;2022-09-16T10:58:48;26.90;62.00
39957;DHT22;48483;44.640;7.494;2022-09-16T11:01:31;26.90;63.20
39957;DHT22;48483;44.640;7.494;2022-09-16T11:04:37;27.00;64.10
39957;DHT22;48483;44.640;7.494;2022-09-16T11:07:12;27.10;62.90
39957;DHT22;48483;44.640;7.494;2022-09-16T11:09:50;27.10;62.60
39957;DHT22;48483;44.640;7.494;2022-09-16T11:15:31;27.10;62.10
39957;DHT22;48483;44.640;7.494;2022-09-16T11:18:16;27.10;61.40
39957;DHT22;48483;44.640;7.494;2022-09-16T11:21:00;27.10;61.50
39957;DHT22;48483;44.640;7.494;2022-09-16T11:23:40;27.20;62.30
39957;DHT22;48483;44.640;7.494;2022-09-16T11:26:16;27.20;62.70
39957;DHT22;48483;44.640;7.494;2022-09-16T11:29:08;27.20;64.00
39957;DHT22;48483;44.640;7.494;2022-09-16T11:31:43;27.20;64.30
39957;DHT22;48483;44.640;7.494;2022-09-16T11:34:20;27.20;65.10
39957;DHT22;48483;44.640;7.494;2022-09-16T11:37:02;27.30;65.00
39957;DHT22;48483;44.640;7.494;2022-09-16T11:39:45;27.30;64.20
39957;DHT22;48483;44.640;7.494;2022-09-16T11:42:20;27.40;63.70
39957;DHT22;48483;44.640;7.494;2022-09-16T11:44:55;27.30;61.10
39957;DHT22;48483;44.640;7.494;2022-09-16T11:47:36;27.30;63.20
39957;DHT22;48483;44.640;7.494;2022-09-16T11:50:17;27.30;61.50
39957;DHT22;48483;44.640;7.494;2022-09-16T11:53:18;27.30;62.80
39957;DHT22;48483;44.640;7.494;2022-09-16T11:55:52;27.40;63.40
39957;DHT22;48483;44.640;7.494;2022-09-16T11:58:34;27.40;62.10
39957;DHT22;48483;44.640;7.494;2022-09-16T12:01:10;27.40;62.60
39957;DHT22;48483;44.640;7.494;2022-09-16T12:03:41;27.40;61.80
39957;DHT22;48483;44.640;7.494;2022-09-16T12:06:14;27.40;61.90
39957;DHT22;48483;44.640;7.494;2022-09-16T12:08:52;27.40;59.60
39957;DHT22;48483;44.640;7.494;2022-09-16T12:11:23;27.50;60.60
39957;DHT22;48483;44.640;7.494;2022-09-16T12:13:56;27.40;61.20
39957;DHT22;48483;44.640;7.494;2022-09-16T12:16:30;27.40;62.70
39957;DHT22;48483;44.640;7.494;2022-09-16T12:19:04;27.40;60.50
39957;DHT22;48483;44.640;7.494;2022-09-16T12:21:36;27.50;61.20
39957;DHT22;48483;44.640;7.494;2022-09-16T12:24:08;27.60;60.30
39957;DHT22;48483;44.640;7.494;2022-09-16T12:26:40;27.70;59.80
39957;DHT22;48483;44.640;7.494;2022-09-16T12:29:13;27.70;58.90
39957;DHT22;48483;44.640;7.494;2022-09-16T12:31:44;27.60;56.50
39957;DHT22;48483;44.640;7.494;2022-09-16T12:34:15;27.60;56.40
39957;DHT22;48483;44.640;7.494;2022-09-16T12:36:47;27.60;56.10
39957;DHT22;48483;44.640;7.494;2022-09-16T12:39:16;27.60;55.70
39957;DHT22;48483;44.640;7.494;2022-09-16T12:42:05;27.60;55.20
39957;DHT22;48483;44.640;7.494;2022-09-16T12:44:49;27.60;56.30
39957;DHT22;48483;44.640;7.494;2022-09-16T12:47:35;27.60;57.40
39957;DHT22;48483;44.640;7.494;2022-09-16T12:50:27;27.60;57.70
39957;DHT22;48483;44.640;7.494;2022-09-16T12:53:31;27.70;57.00
39957;DHT22;48483;44.640;7.494;2022-09-16T12:56:07;27.60;55.60
39957;DHT22;48483;44.640;7.494;2022-09-16T13:01:56;27.60;55.20
39957;DHT22;48483;44.640;7.494;2022-09-16T13:04:27;27.70;56.00
39957;DHT22;48483;44.640;7.494;2022-09-16T13:06:57;27.70;56.60
39957;DHT22;48483;44.640;7.494;2022-09-16T13:09:28;27.80;57.50
39957;DHT22;48483;44.640;7.494;2022-09-16T13:12:00;27.80;57.90
39957;DHT22;48483;44.640;7.494;2022-09-16T13:14:29;27.70;58.70
39957;DHT22;48483;44.640;7.494;2022-09-16T13:16:58;27.70;58.30
39957;DHT22;48483;44.640;7.494;2022-09-16T13:19:39;27.80;57.30
39957;DHT22;48483;44.640;7.494;2022-09-16T13:22:21;27.80;55.80
39957;DHT22;48483;44.640;7.494;2022-09-16T13:24:52;27.80;56.30
39957;DHT22;48483;44.640;7.494;2022-09-16T13:27:26;27.80;54.60
39957;DHT22;48483;44.640;7.494;2022-09-16T13:30:09;27.70;54.50
39957;DHT22;48483;44.640;7.494;2022-09-16T13:32:38;27.70;55.20
39957;DHT22;48483;44.640;7.494;2022-09-16T13:35:22;27.70;54.80
39957;DHT22;48483;44.640;7.494;2022-09-16T13:37:51;27.70;53.50
39957;DHT22;48483;44.640;7.494;2022-09-16T13:40:21;27.70;52.70
39957;DHT22;48483;44.640;7.494;2022-09-16T13:42:51;27.70;53.10
39957;DHT22;48483;44.640;7.494;2022-09-16T13:45:30;27.70;53.60
39957;DHT22;48483;44.640;7.494;2022-09-16T13:48:01;27.80;53.10
39957;DHT22;48483;44.640;7.494;2022-09-16T13:50:30;27.80;53.50
39957;DHT22;48483;44.640;7.494;2022-09-16T13:53:08;27.80;53.60
39957;DHT22;48483;44.640;7.494;2022-09-16T13:55:36;27.80;54.10
39957;DHT22;48483;44.640;7.494;2022-09-16T13:58:13;27.90;54.40
39957;DHT22;48483;44.640;7.494;2022-09-16T14:00:49;27.90;54.20
39957;DHT22;48483;44.640;7.494;2022-09-16T14:03:33;27.90;52.90
39957;DHT22;48483;44.640;7.494;2022-09-16T14:09:16;27.90;52.70
39957;DHT22;48483;44.640;7.494;2022-09-16T14:11:51;27.80;53.10
39957;DHT22;48483;44.640;7.494;2022-09-16T14:14:24;27.80;52.20
39957;DHT22;48483;44.640;7.494;2022-09-16T14:16:53;27.80;52.40
39957;DHT22;48483;44.640;7.494;2022-09-16T14:19:24;27.90;52.80
39957;DHT22;48483;44.640;7.494;2022-09-16T14:22:00;27.90;52.90
39957;DHT22;48483;44.640;7.494;2022-09-16T14:24:33;27.90;52.60
39957;DHT22;48483;44.640;7.494;2022-09-16T14:27:01;27.90;53.30
39957;DHT22;48483;44.640;7.494;2022-09-16T14:29:29;27.90;53.50
39957;DHT22;48483;44.640;7.494;2022-09-16T14:31:56;27.90;52.80
39957;DHT22;48483;44.640;7.494;2022-09-16T14:34:27;27.90;52.90
39957;DHT22;48483;44.640;7.494;2022-09-16T14:36:56;27.90;53.40
39957;DHT22;48483;44.640;7.494;2022-09-16T14:39:25;28.00;53.30
39957;DHT22;48483;44.640;7.494;2022-09-16T14:41:55;27.90;53.20
39957;DHT22;48483;44.640;7.494;2022-09-16T14:44:26;27.90;53.30
39957;DHT22;48483;44.640;7.494;2022-09-16T14:46:57;27.90;53.30
39957;DHT22;48483;44.640;7.494;2022-09-16T14:49:25;27.90;53.40
39957;DHT22;48483;44.640;7.494;2022-09-16T14:51:55;27.90;53.70
39957;DHT22;48483;44.640;7.494;2022-09-16T14:54:28;27.70;54.20
39957;DHT22;48483;44.640;7.494;2022-09-16T14:56:59;27.70;54.40
39957;DHT22;48483;44.640;7.494;2022-09-16T14:59:27;27.70;54.90
39957;DHT22;48483;44.640;7.494;2022-09-16T15:02:01;27.60;55.50
39957;DHT22;48483;44.640;7.494;2022-09-16T15:04:31;27.70;55.50
39957;DHT22;48483;44.640;7.494;2022-09-16T15:07:03;27.60;55.90
39957;DHT22;48483;44.640;7.494;2022-09-16T15:09:36;27.60;56.50
39957;DHT22;48483;44.640;7.494;2022-09-16T15:12:04;27.60;56.70
39957;DHT22;48483;44.640;7.494;2022-09-16T15:14:31;27.60;57.50
39957;DHT22;48483;44.640;7.494;2022-09-16T15:17:01;27.60;58.70
39957;DHT22;48483;44.640;7.494;2022-09-16T15:19:33;27.60;59.80
39957;DHT22;48483;44.640;7.494;2022-09-16T15:22:00;27.50;60.00
39957;DHT22;48483;44.640;7.494;2022-09-16T15:24:30;27.50;60.70
39957;DHT22;48483;44.640;7.494;2022-09-16T15:26:58;27.40;60.70
39957;DHT22;48483;44.640;7.494;2022-09-16T15:29:28;27.40;59.80
39957;DHT22;48483;44.640;7.494;2022-09-16T15:32:13;27.40;60.50
39957;DHT22;48483;44.640;7.494;2022-09-16T15:34:43;27.30;61.10
39957;DHT22;48483;44.640;7.494;2022-09-16T15:37:28;27.30;61.70
39957;DHT22;48483;44.640;7.494;2022-09-16T15:39:54;27.30;62.30
39957;DHT22;48483;44.640;7.494;2022-09-16T15:42:21;27.20;62.40
39957;DHT22;48483;44.640;7.494;2022-09-16T15:44:54;27.20;62.70
39957;DHT22;48483;44.640;7.494;2022-09-16T15:47:24;27.20;63.00
39957;DHT22;48483;44.640;7.494;2022-09-16T15:49:54;27.20;63.60
39957;DHT22;48483;44.640;7.494;2022-09-16T15:52:24;27.10;63.40
39957;DHT22;48483;44.640;7.494;2022-09-16T15:54:53;27.10;63.80
39957;DHT22;48483;44.640;7.494;2022-09-16T15:57:26;27.10;64.00
39957;DHT22;48483;44.640;7.494;2022-09-16T15:59:59;27.10;64.20
39957;DHT22;48483;44.640;7.494;2022-09-16T16:02:44;27.00;64.40
39957;DHT22;48483;44.640;7.494;2022-09-16T16:05:13;27.00;64.80
39957;DHT22;48483;44.640;7.494;2022-09-16T16:07:42;27.00;65.30